METAR Formatted Surface Weather Observation
Issued by NWS Charleston, SC

Home | Current Version | Previous Version | Text Only | Print | Product List | Glossary On
Versions: 1
000
SAUS42 KCHS 250500
MTRSAV
METAR KSAV 250453Z AUTO 31009KT 10SM BKN016 OVC021 17/13 A2968 RMK
AO2 SLP049 T01670128 402610167 TSNO



USA.gov is the U.S. government's official web portal to all federal, state and local government web resources and services.